Time;durP1;ratioP1;P1;durP2;ratioP2;P2;SDS_P1;SDS_P2;PMS_P1;PMS_P2;Temp;Humidity;BMP_temperature;BMP_pressure;BME280_temperature;BME280_humidity;BME280_pressure;Samples;Min_cycle;Max_cycle;Signal;HPM_P1;HPM_P2
2022/06/28 00:00:34;;;;;;;5.80;4.37;;;15.90;99.90;;;;;;5035266;28;20579;-73
2022/06/28 00:02:59;;;;;;;4.33;3.93;;;15.90;99.90;;;;;;5035207;28;20192;-77
2022/06/28 00:05:25;;;;;;;4.00;3.60;;;15.80;99.90;;;;;;5035314;28;20168;-73
2022/06/28 00:07:51;;;;;;;2.93;2.73;;;15.90;99.90;;;;;;5034200;28;20163;-76
2022/06/28 00:10:17;;;;;;;4.80;3.90;;;15.90;99.90;;;;;;5035040;28;20690;-73
2022/06/28 00:12:43;;;;;;;3.97;3.67;;;15.90;99.90;;;;;;5035080;28;20635;-76
2022/06/28 00:17:56;;;;;;;3.87;3.57;;;15.90;99.90;;;;;;5034169;28;20429;-74
2022/06/28 00:20:22;;;;;;;3.83;3.53;;;15.80;99.90;;;;;;5034019;28;20461;-74
2022/06/28 00:22:48;;;;;;;6.00;3.70;;;15.90;99.90;;;;;;5034766;28;20604;-76
2022/06/28 00:25:14;;;;;;;3.80;3.50;;;15.90;99.90;;;;;;5034760;28;20482;-75
2022/06/28 00:27:40;;;;;;;4.17;3.83;;;15.90;99.90;;;;;;5034020;28;20961;-73
2022/06/28 00:30:06;;;;;;;4.73;3.90;;;15.80;99.90;;;;;;5034724;28;20187;-73
2022/06/28 00:32:32;;;;;;;3.17;2.97;;;15.70;99.90;;;;;;5034111;28;20410;-74
2022/06/28 00:34:59;;;;;;;4.43;4.03;;;15.70;99.90;;;;;;5034583;28;20414;-76
2022/06/28 00:37:25;;;;;;;5.77;3.93;;;15.70;99.90;;;;;;5033780;28;20382;-73
2022/06/28 00:39:51;;;;;;;5.37;4.90;;;15.70;99.90;;;;;;5034630;28;20895;-74
2022/06/28 00:42:17;;;;;;;3.83;3.53;;;15.70;99.90;;;;;;5034442;28;20405;-73
2022/06/28 00:44:43;;;;;;;4.57;4.17;;;15.70;99.90;;;;;;5034551;28;20164;-77
2022/06/28 00:47:09;;;;;;;7.23;3.87;;;15.80;99.90;;;;;;5033570;28;20222;-74
2022/06/28 00:49:39;;;;;;;5.10;4.10;;;15.80;99.90;;;;;;5033906;28;20426;-75
2022/06/28 00:52:06;;;;;;;3.37;2.83;;;15.90;99.90;;;;;;5034190;28;20741;-77
2022/06/28 00:54:31;;;;;;;3.90;3.57;;;15.80;99.90;;;;;;5034373;28;20795;-77
2022/06/28 00:56:57;;;;;;;5.80;3.80;;;15.80;99.90;;;;;;5033347;28;20403;-73
2022/06/28 00:59:23;;;;;;;3.43;3.20;;;15.80;99.90;;;;;;5034148;28;20201;-73
2022/06/28 01:01:49;;;;;;;3.80;3.20;;;15.80;99.90;;;;;;5034302;28;20481;-73
2022/06/28 01:04:15;;;;;;;3.30;3.07;;;15.90;99.90;;;;;;5034094;28;20257;-73
2022/06/28 01:06:41;;;;;;;4.17;3.00;;;15.90;99.90;;;;;;5032927;28;20800;-77
2022/06/28 01:09:07;;;;;;;3.57;2.73;;;15.90;99.90;;;;;;5033523;28;20236;-76
2022/06/28 01:11:33;;;;;;;6.43;3.73;;;15.90;99.90;;;;;;5033994;28;20398;-74
2022/06/28 01:14:02;;;;;;;3.33;3.03;;;15.80;99.90;;;;;;5033965;28;20175;-73
2022/06/28 01:16:28;;;;;;;3.30;3.10;;;15.80;99.90;;;;;;5033373;28;20401;-75
2022/06/28 01:18:54;;;;;;;5.20;3.60;;;15.70;99.90;;;;;;5033115;28;20442;-73
2022/06/28 01:21:23;;;;;;;3.20;3.00;;;15.70;99.90;;;;;;5033635;28;20760;-73
2022/06/28 01:23:49;;;;;;;3.73;3.43;;;15.70;99.90;;;;;;5033385;28;20200;-73
2022/06/28 01:26:19;;;;;;;2.80;2.60;;;15.60;99.90;;;;;;5033318;28;20919;-73
2022/06/28 01:28:45;;;;;;;3.63;3.33;;;15.60;99.90;;;;;;5033064;28;20180;-73
2022/06/28 01:31:12;;;;;;;3.27;3.07;;;15.60;99.90;;;;;;5033719;28;20953;-74
2022/06/28 01:33:39;;;;;;;2.93;2.73;;;15.60;99.90;;;;;;5033598;28;20956;-76
2022/06/28 01:36:08;;;;;;;3.00;2.80;;;15.60;99.90;;;;;;5032311;28;20406;-73
2022/06/28 01:38:35;;;;;;;3.60;3.30;;;15.60;99.90;;;;;;5032501;28;20422;-74
2022/06/28 01:41:01;;;;;;;3.20;2.90;;;15.50;99.90;;;;;;5033180;28;20428;-77
2022/06/28 01:43:29;;;;;;;7.40;3.20;;;15.50;99.90;;;;;;5033017;28;20946;-73
2022/06/28 01:45:55;;;;;;;3.30;3.10;;;15.50;99.90;;;;;;5032231;28;20562;-76
2022/06/28 01:48:21;;;;;;;2.70;2.50;;;15.50;99.90;;;;;;5031148;28;20480;-77
2022/06/28 01:50:48;;;;;;;2.90;2.70;;;15.50;99.90;;;;;;5032032;28;20497;-77
2022/06/28 01:53:14;;;;;;;2.90;2.70;;;15.40;99.90;;;;;;5033387;28;20163;-76
2022/06/28 01:55:41;;;;;;;4.63;3.67;;;15.40;99.90;;;;;;5033221;28;20417;-74
2022/06/28 01:58:08;;;;;;;2.83;2.63;;;15.30;99.90;;;;;;5031777;28;20414;-74
2022/06/28 02:00:34;;;;;;;3.27;3.07;;;15.30;99.90;;;;;;5033184;28;20883;-76
2022/06/28 02:03:00;;;;;;;7.50;3.60;;;15.30;99.90;;;;;;5033118;28;20445;-77
2022/06/28 02:05:26;;;;;;;3.50;3.20;;;15.30;99.90;;;;;;5033120;28;20489;-74
2022/06/28 02:07:54;;;;;;;2.73;2.53;;;15.20;99.90;;;;;;5032268;28;20486;-74
2022/06/28 02:10:21;;;;;;;3.80;3.50;;;15.20;99.90;;;;;;5033072;28;21004;-73
2022/06/28 02:12:47;;;;;;;3.67;2.70;;;15.20;99.90;;;;;;5033045;28;20894;-77
2022/06/28 02:15:13;;;;;;;3.10;2.90;;;15.20;99.90;;;;;;5033060;28;20414;-76
2022/06/28 02:17:40;;;;;;;3.17;2.80;;;15.20;99.90;;;;;;5031823;28;20591;-74
2022/06/28 02:20:06;;;;;;;5.20;2.73;;;15.20;99.90;;;;;;5032513;28;20517;-78
2022/06/28 02:22:32;;;;;;;3.03;2.73;;;15.20;99.90;;;;;;5033056;28;20830;-76
2022/06/28 02:24:58;;;;;;;3.37;3.10;;;15.20;99.90;;;;;;5032911;28;20422;-73
2022/06/28 02:27:23;;;;;;;3.67;3.30;;;15.30;99.90;;;;;;5032028;28;20409;-73
2022/06/28 02:29:49;;;;;;;6.90;3.33;;;15.20;99.90;;;;;;5032837;28;20714;-77
2022/06/28 02:32:15;;;;;;;3.00;2.57;;;15.20;99.90;;;;;;5037021;28;20168;-73
2022/06/28 02:40:21;;;;;;;5.83;3.63;;;15.20;99.90;;;;;;5036918;28;20421;-73
2022/06/28 02:42:47;;;;;;;3.47;3.17;;;15.10;99.90;;;;;;5036729;28;20449;-73
2022/06/28 02:45:13;;;;;;;4.10;3.70;;;15.20;99.90;;;;;;5036810;28;20409;-74
2022/06/28 02:47:39;;;;;;;4.03;3.73;;;15.20;99.90;;;;;;5035856;28;20402;-77
2022/06/28 02:50:06;;;;;;;3.53;3.30;;;15.20;99.90;;;;;;5036487;28;20198;-73
2022/06/28 02:52:32;;;;;;;3.57;3.27;;;15.20;99.90;;;;;;5036642;28;20163;-74
2022/06/28 02:54:57;;;;;;;4.80;3.20;;;15.20;99.90;;;;;;5036607;28;20405;-77
2022/06/28 02:57:23;;;;;;;3.70;3.40;;;15.20;99.90;;;;;;5035121;28;20167;-77
2022/06/28 02:59:49;;;;;;;4.63;2.97;;;15.20;99.90;;;;;;5036457;28;20207;-77
2022/06/28 03:02:15;;;;;;;3.30;3.10;;;15.20;99.90;;;;;;5036292;28;20172;-77
2022/06/28 03:04:40;;;;;;;7.50;3.10;;;15.30;99.90;;;;;;5036373;28;20242;-74
2022/06/28 03:07:06;;;;;;;4.07;3.00;;;15.30;99.90;;;;;;5035595;28;20315;-77
2022/06/28 03:09:31;;;;;;;3.10;2.77;;;15.30;99.90;;;;;;5036192;28;20179;-74
2022/06/28 03:11:57;;;;;;;3.90;3.60;;;15.30;99.90;;;;;;5036214;28;20202;-74
2022/06/28 03:14:23;;;;;;;3.43;3.13;;;15.30;99.90;;;;;;5036233;28;20636;-73
2022/06/28 03:16:49;;;;;;;3.63;3.33;;;15.30;99.90;;;;;;5034704;28;20183;-77
2022/06/28 03:19:14;;;;;;;21.30;4.40;;;15.30;99.90;;;;;;5035975;28;20214;-77
2022/06/28 03:21:41;;;;;;;3.60;3.40;;;15.20;99.90;;;;;;5036120;28;20247;-73
2022/06/28 03:24:07;;;;;;;3.77;3.50;;;15.20;99.90;;;;;;5035782;28;20460;-77
2022/06/28 03:26:32;;;;;;;5.67;3.20;;;15.20;99.90;;;;;;5035054;28;20903;-76
2022/06/28 03:28:58;;;;;;;3.50;3.23;;;15.20;99.90;;;;;;5035895;28;20410;-73
2022/06/28 03:31:24;;;;;;;3.80;3.03;;;15.20;99.90;;;;;;5035949;28;20176;-77
2022/06/28 03:33:49;;;;;;;3.33;3.13;;;15.10;99.90;;;;;;5035983;28;20164;-73
2022/06/28 03:36:15;;;;;;;3.97;3.00;;;15.10;99.90;;;;;;5034922;28;20168;-74
2022/06/28 03:38:41;;;;;;;4.43;3.67;;;15.10;99.90;;;;;;5034851;28;20211;-73
2022/06/28 03:41:06;;;;;;;4.77;2.80;;;15.10;99.90;;;;;;5035253;28;20644;-77
2022/06/28 03:43:32;;;;;;;4.27;3.03;;;15.10;99.90;;;;;;5035649;28;20664;-73
2022/06/28 03:45:58;;;;;;;3.60;3.40;;;15.10;99.90;;;;;;5035695;28;20206;-77
2022/06/28 03:48:23;;;;;;;3.50;3.20;;;15.10;99.90;;;;;;5034667;28;20187;-73
2022/06/28 03:50:49;;;;;;;3.53;3.23;;;15.10;99.90;;;;;;5034257;28;20174;-73
2022/06/28 03:53:15;;;;;;;3.80;3.50;;;15.10;99.90;;;;;;5035503;28;20172;-75
2022/06/28 03:55:40;;;;;;;3.20;2.90;;;15.10;99.90;;;;;;5035238;28;20233;-73
2022/06/28 03:58:06;;;;;;;3.77;3.47;;;15.10;99.90;;;;;;5034262;28;20179;-74
2022/06/28 04:00:32;;;;;;;3.17;2.97;;;15.00;99.90;;;;;;5035414;28;20182;-76
2022/06/28 04:03:01;;;;;;;3.70;3.40;;;15.10;99.90;;;;;;5035306;28;20725;-77
2022/06/28 04:05:27;;;;;;;3.87;3.53;;;15.00;99.90;;;;;;5034042;28;20176;-73
2022/06/28 04:07:53;;;;;;;3.57;3.27;;;15.00;99.90;;;;;;5034402;28;20485;-77
2022/06/28 04:10:19;;;;;;;3.07;2.87;;;15.00;99.90;;;;;;5035166;28;20509;-77
2022/06/28 04:12:45;;;;;;;5.43;2.70;;;15.00;99.90;;;;;;5034979;28;20192;-77
2022/06/28 04:15:10;;;;;;;4.50;3.53;;;15.00;99.90;;;;;;5034746;28;20933;-73
2022/06/28 04:17:36;;;;;;;4.17;3.83;;;15.10;99.90;;;;;;5034003;28;20266;-73
2022/06/28 04:20:03;;;;;;;4.37;3.97;;;15.10;99.90;;;;;;5035018;28;20189;-73
2022/06/28 04:22:28;;;;;;;5.27;2.80;;;15.10;99.90;;;;;;5034991;28;20168;-77
2022/06/28 04:24:54;;;;;;;3.77;3.47;;;15.10;99.90;;;;;;5034806;28;20760;-77
2022/06/28 04:27:19;;;;;;;3.10;2.83;;;15.10;99.90;;;;;;5034059;28;20176;-77
2022/06/28 04:29:45;;;;;;;3.50;3.20;;;15.10;99.90;;;;;;5034877;28;20190;-77
2022/06/28 04:32:11;;;;;;;8.63;3.50;;;15.10;99.90;;;;;;5034244;28;20170;-73
2022/06/28 04:34:37;;;;;;;3.70;3.30;;;15.10;99.90;;;;;;5034766;28;20175;-76
2022/06/28 04:37:02;;;;;;;3.77;3.47;;;15.10;99.90;;;;;;5032763;28;20180;-73
2022/06/28 04:39:28;;;;;;;3.80;3.50;;;15.10;99.90;;;;;;5034535;28;20688;-77
2022/06/28 04:41:54;;;;;;;4.60;3.30;;;15.10;99.90;;;;;;5033341;28;20179;-74
2022/06/28 04:44:19;;;;;;;4.20;3.90;;;15.20;99.90;;;;;;5033178;28;20210;-77
2022/06/28 04:46:45;;;;;;;5.90;4.10;;;15.20;99.90;;;;;;5033524;28;20172;-77
2022/06/28 04:49:11;;;;;;;5.17;4.57;;;15.20;99.90;;;;;;5034420;28;20191;-76
2022/06/28 04:51:36;;;;;;;4.37;3.97;;;15.20;99.90;;;;;;5033760;28;20168;-73
2022/06/28 04:54:02;;;;;;;4.13;3.80;;;15.20;99.90;;;;;;5033389;28;20574;-73
2022/06/28 04:56:28;;;;;;;4.03;3.73;;;15.20;99.90;;;;;;5033792;28;20175;-75
2022/06/28 04:58:54;;;;;;;4.70;4.40;;;15.20;99.90;;;;;;5034044;28;20501;-77
2022/06/28 05:01:19;;;;;;;4.53;4.10;;;15.30;99.90;;;;;;5034141;28;20163;-73
2022/06/28 05:03:46;;;;;;;4.97;4.40;;;15.20;99.90;;;;;;5034171;28;20202;-73
2022/06/28 05:06:12;;;;;;;4.47;4.07;;;15.20;99.90;;;;;;5033754;28;20521;-76
2022/06/28 05:08:38;;;;;;;4.50;4.10;;;15.40;99.90;;;;;;5032862;28;20823;-77
2022/06/28 05:11:04;;;;;;;4.67;3.30;;;15.30;99.90;;;;;;5034032;28;20445;-74
2022/06/28 05:13:29;;;;;;;4.60;4.20;;;15.40;99.90;;;;;;5033939;28;20171;-73
2022/06/28 05:15:55;;;;;;;4.50;3.87;;;15.50;99.90;;;;;;5033979;28;20764;-74
2022/06/28 05:18:21;;;;;;;4.17;3.77;;;15.60;99.90;;;;;;5032891;28;20446;-78
2022/06/28 05:20:46;;;;;;;5.33;4.03;;;15.60;99.90;;;;;;5033767;28;20179;-73
2022/06/28 05:23:12;;;;;;;3.63;3.40;;;15.80;99.90;;;;;;5033669;28;20252;-76
2022/06/28 05:25:38;;;;;;;7.47;4.20;;;15.80;99.90;;;;;;5033664;28;20201;-78
2022/06/28 05:28:04;;;;;;;3.57;3.27;;;15.90;99.90;;;;;;5032275;28;20402;-74
2022/06/28 05:30:29;;;;;;;6.00;4.33;;;15.90;99.90;;;;;;5033856;28;20166;-73
2022/06/28 05:32:55;;;;;;;4.80;4.03;;;16.00;99.90;;;;;;5033615;28;20163;-80
2022/06/28 05:35:21;;;;;;;7.63;3.90;;;16.00;99.90;;;;;;5033452;28;20175;-76
2022/06/28 05:37:47;;;;;;;5.00;4.50;;;16.00;99.90;;;;;;5031297;28;20176;-80
2022/06/28 05:40:13;;;;;;;4.13;3.83;;;16.10;99.90;;;;;;5033472;28;20472;-76
2022/06/28 05:42:39;;;;;;;4.43;4.03;;;16.20;99.90;;;;;;5033481;28;20210;-77
2022/06/28 05:45:05;;;;;;;3.53;2.90;;;16.20;99.90;;;;;;5032919;28;20178;-76
2022/06/28 05:47:31;;;;;;;4.40;4.10;;;16.30;99.90;;;;;;5032478;28;20318;-77
2022/06/28 05:49:57;;;;;;;5.00;3.53;;;16.30;99.90;;;;;;5031975;28;20853;-74
2022/06/28 05:52:22;;;;;;;4.00;3.63;;;16.30;99.90;;;;;;5033507;28;20482;-78
2022/06/28 05:54:48;;;;;;;12.03;3.80;;;16.40;99.90;;;;;;5033370;28;20175;-72
2022/06/28 05:57:14;;;;;;;4.30;4.00;;;16.50;99.90;;;;;;5032397;28;20571;-74
2022/06/28 05:59:39;;;;;;;6.63;3.40;;;16.50;99.90;;;;;;5032664;28;20450;-77
2022/06/28 06:02:06;;;;;;;4.90;3.40;;;16.60;99.90;;;;;;5041678;28;20163;-77
2022/06/28 06:04:33;;;;;;;3.77;3.50;;;16.60;99.90;;;;;;5046510;28;20225;-73
2022/06/28 06:06:58;;;;;;;5.20;3.60;;;16.60;99.90;;;;;;5035780;28;20423;-78
2022/06/28 06:09:24;;;;;;;4.07;3.77;;;16.70;99.90;;;;;;5031339;28;20461;-77
2022/06/28 06:11:50;;;;;;;3.90;3.60;;;16.80;99.90;;;;;;5035268;28;20182;-72
2022/06/28 06:14:16;;;;;;;4.13;3.83;;;16.80;99.90;;;;;;5045663;28;20187;-77
2022/06/28 06:16:43;;;;;;;3.67;3.37;;;16.90;99.90;;;;;;5031521;28;20225;-77
2022/06/28 06:19:08;;;;;;;3.53;2.90;;;17.00;99.90;;;;;;5032242;28;20553;-73
2022/06/28 06:21:34;;;;;;;4.10;3.20;;;17.00;99.90;;;;;;5031513;28;20529;-77
2022/06/28 06:24:00;;;;;;;4.33;3.33;;;17.00;99.90;;;;;;5031840;28;20211;-77
2022/06/28 06:26:26;;;;;;;3.70;3.40;;;17.10;99.90;;;;;;5033605;28;20175;-74
2022/06/28 06:28:51;;;;;;;3.43;3.13;;;17.10;99.90;;;;;;5032275;28;20604;-77
2022/06/28 06:31:17;;;;;;;3.77;3.40;;;17.30;99.90;;;;;;5035013;28;20210;-74
2022/06/28 06:33:43;;;;;;;4.10;3.17;;;17.40;99.90;;;;;;5032301;28;20179;-74
2022/06/28 06:36:08;;;;;;;4.03;3.30;;;17.50;99.90;;;;;;5032887;28;20624;-74
2022/06/28 06:38:34;;;;;;;3.03;2.70;;;17.60;99.90;;;;;;5031351;28;20282;-77
2022/06/28 06:41:00;;;;;;;3.77;3.47;;;17.70;99.90;;;;;;5032380;28;20181;-77
2022/06/28 06:43:29;;;;;;;3.63;3.33;;;17.60;99.90;;;;;;5030869;28;20187;-74
2022/06/28 06:45:55;;;;;;;4.37;2.90;;;17.60;99.90;;;;;;5045206;28;20230;-74
2022/06/28 06:48:24;;;;;;;4.33;3.20;;;17.60;99.90;;;;;;5047558;28;20484;-74
2022/06/28 06:50:49;;;;;;;4.80;2.97;;;17.70;99.90;;;;;;5032183;28;20422;-76
2022/06/28 06:53:16;;;;;;;3.10;2.83;;;17.70;99.90;;;;;;5032444;28;20434;-73
2022/06/28 06:55:41;;;;;;;2.90;2.70;;;17.80;99.90;;;;;;5032687;28;20170;-76
2022/06/28 06:58:08;;;;;;;3.20;3.00;;;17.90;99.90;;;;;;5030444;28;20946;-77
2022/06/28 07:00:34;;;;;;;2.90;2.70;;;18.00;99.90;;;;;;5031950;28;20214;-77
2022/06/28 07:03:02;;;;;;;7.37;3.20;;;18.10;99.90;;;;;;5031819;28;20457;-77
2022/06/28 07:05:28;;;;;;;2.83;2.63;;;18.10;99.90;;;;;;5032619;28;20398;-77
2022/06/28 07:07:54;;;;;;;2.67;2.47;;;18.20;99.90;;;;;;5045741;28;20437;-76
2022/06/28 07:10:20;;;;;;;2.87;2.57;;;18.20;99.90;;;;;;5047511;28;20487;-76
2022/06/28 07:12:46;;;;;;;5.23;2.87;;;18.30;99.90;;;;;;5048614;28;20539;-77
2022/06/28 07:15:11;;;;;;;6.50;2.77;;;18.20;99.90;;;;;;5032498;28;20180;-77
2022/06/28 07:17:37;;;;;;;2.77;2.57;;;18.10;99.90;;;;;;5034322;28;20266;-74
2022/06/28 07:20:03;;;;;;;5.00;2.80;;;18.00;99.90;;;;;;5034046;28;20210;-75
2022/06/28 07:22:29;;;;;;;3.60;3.37;;;17.90;99.90;;;;;;5035734;28;20301;-77
2022/06/28 07:24:56;;;;;;;4.63;3.03;;;17.90;99.90;;;;;;5033982;28;20521;-76
2022/06/28 07:27:22;;;;;;;5.30;3.33;;;18.00;99.90;;;;;;5035123;28;20183;-77
2022/06/28 07:29:48;;;;;;;5.93;3.80;;;18.10;99.90;;;;;;5034386;28;20446;-74
2022/06/28 07:32:15;;;;;;;2.70;2.50;;;18.30;99.90;;;;;;5034970;28;20459;-74
2022/06/28 07:34:40;;;;;;;2.70;2.50;;;18.50;99.90;;;;;;5035860;28;20402;-73
2022/06/28 07:37:06;;;;;;;2.70;2.50;;;18.50;99.90;;;;;;5037202;28;20440;-75
2022/06/28 07:39:32;;;;;;;2.73;2.53;;;18.40;40.90;;;;;;5035240;28;20191;-75
2022/06/28 07:41:58;;;;;;;3.93;2.67;;;18.50;1.00;;;;;;5034456;28;20186;-75
2022/06/28 07:44:24;;;;;;;2.40;2.20;;;18.60;1.00;;;;;;5034935;28;20554;-75
2022/06/28 07:46:50;;;;;;;2.53;2.33;;;18.60;1.00;;;;;;5034856;28;20183;-74
2022/06/28 07:49:16;;;;;;;2.90;2.70;;;18.80;1.00;;;;;;5034681;28;20196;-74
2022/06/28 07:54:26;;;;;;;2.90;2.20;;;18.80;1.00;;;;;;5034806;28;20203;-77
2022/06/28 07:56:52;;;;;;;3.87;3.50;;;18.70;1.00;;;;;;5033843;28;20930;-75
2022/06/28 07:59:18;;;;;;;3.90;2.23;;;18.70;1.00;;;;;;5035013;28;20195;-73
2022/06/28 08:01:43;;;;;;;2.70;2.40;;;18.80;1.00;;;;;;5043324;28;20663;-77
2022/06/28 08:04:11;;;;;;;2.90;2.10;;;19.00;1.00;;;;;;5055095;28;20202;-74
2022/06/28 08:06:37;;;;;;;2.70;2.50;;;19.20;1.00;;;;;;5054277;28;20224;-77
2022/06/28 08:09:03;;;;;;;7.97;2.37;;;19.30;1.00;;;;;;5055118;28;20425;-73
2022/06/28 08:11:29;;;;;;;4.57;2.80;;;19.20;99.90;;;;;;5055221;28;20421;-76
2022/06/28 08:13:55;;;;;;;2.07;1.87;;;19.20;99.90;;;;;;5055088;28;20458;-73
2022/06/28 08:16:23;;;;;;;1.70;1.60;;;19.20;99.90;;;;;;5054772;28;20173;-76
2022/06/28 08:18:48;;;;;;;2.90;2.47;;;19.20;99.90;;;;;;5053731;28;20215;-77
2022/06/28 08:21:14;;;;;;;2.47;2.27;;;19.10;99.90;;;;;;5053855;28;20436;-77
2022/06/28 08:23:39;;;;;;;2.50;2.30;;;19.20;99.90;;;;;;5054862;28;20284;-74
2022/06/28 08:26:05;;;;;;;2.40;2.20;;;19.40;99.90;;;;;;5054892;28;20173;-76
2022/06/28 08:28:31;;;;;;;3.00;2.47;;;19.60;99.90;;;;;;5053681;28;20194;-74
2022/06/28 08:30:57;;;;;;;2.70;2.13;;;19.80;99.90;;;;;;5054718;28;20178;-76
2022/06/28 08:33:22;;;;;;;3.13;2.83;;;20.10;99.90;;;;;;5054896;28;20543;-77
2022/06/28 08:35:48;;;;;;;3.90;2.37;;;20.20;99.90;;;;;;5054410;28;20533;-77
2022/06/28 08:38:14;;;;;;;1.90;1.70;;;20.10;99.90;;;;;;5053342;28;20209;-74
2022/06/28 08:40:40;;;;;;;2.87;1.60;;;20.00;99.90;;;;;;5054501;28;20171;-74
2022/06/28 08:43:07;;;;;;;1.93;1.60;;;20.00;99.90;;;;;;5054453;28;20179;-73
2022/06/28 08:45:33;;;;;;;2.00;1.80;;;20.10;99.90;;;;;;5054540;28;20393;-77
2022/06/28 08:48:12;;;;;;;1.80;1.70;;;20.20;99.90;;;;;;5052524;28;20463;-77
2022/06/28 08:50:40;;;;;;;2.27;1.90;;;20.40;99.90;;;;;;5054394;28;20470;-76
2022/06/28 08:53:09;;;;;;;1.50;1.23;;;20.40;99.90;;;;;;5053685;28;20883;-77
2022/06/28 08:55:36;;;;;;;1.93;1.83;;;20.30;99.90;;;;;;5054231;28;20417;-73
2022/06/28 08:58:05;;;;;;;5.13;2.60;;;20.10;99.90;;;;;;5053309;28;20486;-78
2022/06/28 09:00:31;;;;;;;2.33;2.00;;;20.00;99.90;;;;;;5054098;28;20509;-78
2022/06/28 09:02:57;;;;;;;1.70;1.60;;;19.90;99.90;;;;;;5053909;28;20950;-77
2022/06/28 09:05:25;;;;;;;2.00;1.90;;;19.70;99.90;;;;;;5054183;28;20409;-72
2022/06/28 09:07:52;;;;;;;2.33;2.10;;;19.70;99.90;;;;;;5052189;28;20171;-73
2022/06/28 09:10:19;;;;;;;2.40;2.27;;;19.60;99.90;;;;;;5053379;28;20898;-78
2022/06/28 09:12:54;;;;;;;2.83;2.63;;;19.80;99.90;;;;;;5053912;28;20417;-78
2022/06/28 09:15:22;;;;;;;2.37;2.23;;;19.80;99.90;;;;;;5053957;28;20766;-73
2022/06/28 09:17:53;;;;;;;2.53;2.43;;;20.10;99.90;;;;;;5052873;28;20440;-78
2022/06/28 09:20:20;;;;;;;2.10;1.90;;;20.50;99.90;;;;;;5053643;28;20429;-73
2022/06/28 09:22:46;;;;;;;1.77;1.67;;;20.60;99.90;;;;;;5052490;28;20851;-77
2022/06/28 09:25:29;;;;;;;2.17;2.07;;;21.00;99.90;;;;;;5053881;28;20429;-72
2022/06/28 09:28:00;;;;;;;2.30;1.90;;;21.30;99.90;;;;;;5052452;28;20408;-76
2022/06/28 09:30:33;;;;;;;2.57;1.90;;;21.40;99.90;;;;;;5053460;28;20956;-73
2022/06/28 09:33:01;;;;;;;4.17;2.43;;;21.20;99.90;;;;;;5053475;28;20420;-74
2022/06/28 09:35:27;;;;;;;3.80;2.33;;;20.70;99.90;;;;;;5053622;28;20413;-73
2022/06/28 09:37:56;;;;;;;3.03;2.83;;;20.40;99.90;;;;;;5052662;28;20612;-72
2022/06/28 09:40:21;;;;;;;3.30;3.00;;;20.20;99.90;;;;;;5052920;28;20191;-71
2022/06/28 09:43:07;;;;;;;3.50;3.30;;;20.10;99.90;;;;;;5053593;28;20443;-71
2022/06/28 09:45:34;;;;;;;4.83;4.43;;;19.60;99.90;;;;;;5053118;28;20576;-78
2022/06/28 09:48:00;;;;;;;4.90;4.50;;;19.40;99.90;;;;;;5052130;28;20894;-77
2022/06/28 09:50:26;;;;;;;4.60;4.30;;;19.30;99.90;;;;;;5053254;28;20401;-77
2022/06/28 09:52:52;;;;;;;5.07;4.57;;;19.20;99.90;;;;;;5053281;28;20500;-76
2022/06/28 09:55:19;;;;;;;6.00;5.53;;;19.30;99.90;;;;;;5053300;28;20244;-76
2022/06/28 09:57:47;;;;;;;11.80;7.20;;;19.80;99.90;;;;;;5052320;28;20437;-76
2022/06/28 10:00:15;;;;;;;6.93;6.30;;;20.10;99.90;;;;;;5053123;28;20417;-75
2022/06/28 10:02:42;;;;;;;5.70;5.10;;;20.40;99.90;;;;;;5053076;28;20406;-77
2022/06/28 10:05:11;;;;;;;5.50;5.00;;;20.90;99.90;;;;;;5052870;28;20833;-76
2022/06/28 10:07:38;;;;;;;4.67;4.27;;;21.20;99.90;;;;;;5051706;28;20886;-75
2022/06/28 10:10:06;;;;;;;4.53;3.23;;;21.50;99.90;;;;;;5053066;28;20425;-76
2022/06/28 10:15:21;;;;;;;3.33;3.10;;;21.80;99.90;;;;;;5053043;28;20404;-76
2022/06/28 10:18:08;;;;;;;3.07;2.23;;;22.10;99.90;;;;;;5051811;28;20437;-76
2022/06/28 10:20:38;;;;;;;2.43;2.23;;;22.30;99.90;;;;;;5052974;28;20909;-76
2022/06/28 10:23:23;;;;;;;2.03;1.93;;;22.50;99.90;;;;;;5052460;28;21104;-76
2022/06/28 10:26:07;;;;;;;2.50;2.00;;;22.70;99.90;;;;;;5052807;28;20756;-77
2022/06/28 10:28:44;;;;;;;2.83;2.00;;;23.00;99.90;;;;;;5050726;28;20516;-72
2022/06/28 10:31:24;;;;;;;4.17;2.23;;;23.30;99.90;;;;;;5052806;28;20401;-72
2022/06/28 10:33:58;;;;;;;3.67;2.00;;;23.40;99.90;;;;;;5052805;28;20416;-77
2022/06/28 10:36:27;;;;;;;2.67;2.37;;;23.90;99.90;;;;;;5052531;28;20413;-72
2022/06/28 10:39:07;;;;;;;3.70;2.63;;;24.50;99.90;;;;;;5052329;28;20559;-72
2022/06/28 10:41:38;;;;;;;2.67;2.47;;;23.80;99.90;;;;;;5052455;28;20444;-73
2022/06/28 10:44:41;;;;;;;3.47;2.90;;;23.20;99.90;;;;;;5052193;28;20457;-77
2022/06/28 10:47:07;;;;;;;2.43;2.23;;;23.10;99.90;;;;;;5051568;28;20413;-79
2022/06/28 10:49:44;;;;;;;2.90;2.27;;;22.90;99.90;;;;;;5052528;28;20429;-71
2022/06/28 10:52:15;;;;;;;2.90;2.70;;;22.50;99.90;;;;;;5054860;28;20401;-77
2022/06/28 10:55:03;;;;;;;3.00;2.70;;;22.80;99.90;;;;;;5056766;28;20436;-71
2022/06/28 10:57:32;;;;;;;7.67;2.47;;;23.50;99.90;;;;;;5055474;28;20412;-74
2022/06/28 11:00:03;;;;;;;2.63;2.10;;;24.10;99.90;;;;;;5055896;28;20421;-70
2022/06/28 11:02:50;;;;;;;2.10;1.90;;;24.70;99.90;;;;;;5056611;28;20397;-76
2022/06/28 11:05:18;;;;;;;3.87;1.87;;;25.50;99.90;;;;;;5055260;28;20980;-78
2022/06/28 11:07:59;;;;;;;2.80;1.73;;;25.80;99.90;;;;;;5054081;28;20409;-78
2022/06/28 11:10:26;;;;;;;1.67;1.57;;;25.60;99.90;;;;;;5056237;28;20401;-69
2022/06/28 11:12:52;;;;;;;3.47;1.97;;;25.50;99.90;;;;;;5056156;28;20412;-70
2022/06/28 11:15:32;;;;;;;3.40;1.60;;;25.40;99.90;;;;;;5056332;28;20742;-77
2022/06/28 11:17:59;;;;;;;2.07;1.97;;;25.60;99.90;;;;;;5054831;28;20190;-74
2022/06/28 11:20:25;;;;;;;1.90;1.80;;;26.10;99.90;;;;;;5055866;28;20432;-77
2022/06/28 11:22:52;;;;;;;3.00;1.53;;;26.30;99.90;;;;;;5056020;28;20905;-77
2022/06/28 11:25:22;;;;;;;2.37;1.70;;;26.30;97.90;;;;;;5056112;28;20409;-76
2022/06/28 11:27:56;;;;;;;1.93;1.73;;;25.70;98.90;;;;;;5055034;28;20405;-77
2022/06/28 11:30:26;;;;;;;2.50;1.90;;;24.50;98.50;;;;;;5055836;28;20564;-78
2022/06/28 11:32:59;;;;;;;2.40;1.80;;;23.60;97.10;;;;;;5055897;28;20456;-69
2022/06/28 11:35:28;;;;;;;2.17;1.77;;;23.00;96.00;;;;;;5055661;28;20401;-76
2022/06/28 11:38:09;;;;;;;2.07;1.70;;;23.30;96.90;;;;;;5054337;28;20533;-77
2022/06/28 11:40:54;;;;;;;1.90;1.40;;;24.00;96.00;;;;;;5055914;28;20401;-69
2022/06/28 11:43:27;;;;;;;5.60;1.10;;;25.00;91.80;;;;;;5055668;28;20447;-69
2022/06/28 11:45:55;;;;;;;3.60;1.60;;;25.80;89.10;;;;;;5055738;28;20437;-70
2022/06/28 11:48:31;;;;;;;1.50;1.20;;;26.00;82.30;;;;;;5054554;28;20409;-75
2022/06/28 11:50:58;;;;;;;1.40;1.23;;;26.50;81.50;;;;;;5054225;28;20822;-69
2022/06/28 11:53:25;;;;;;;1.97;1.30;;;27.40;83.80;;;;;;5055157;28;20496;-70
2022/06/28 11:55:52;;;;;;;2.00;1.20;;;27.90;68.70;;;;;;5055041;28;20410;-69
2022/06/28 11:58:26;;;;;;;2.07;0.80;;;28.10;60.70;;;;;;5054351;28;20997;-78
2022/06/28 12:01:24;;;;;;;4.13;1.30;;;28.00;57.00;;;;;;5055251;28;20492;-78
2022/06/28 12:03:50;;;;;;;1.93;1.10;;;27.70;50.00;;;;;;5054870;28;20453;-69
2022/06/28 12:06:28;;;;;;;2.00;1.43;;;27.70;39.80;;;;;;5055061;28;20445;-78
2022/06/28 12:09:04;;;;;;;1.50;1.10;;;28.00;49.20;;;;;;5055142;28;20273;-77
2022/06/28 12:11:36;;;;;;;2.03;0.90;;;28.90;41.90;;;;;;5055237;28;20815;-76
2022/06/28 12:14:14;;;;;;;2.60;1.10;;;29.20;26.80;;;;;;5053310;28;20413;-70
2022/06/28 12:16:44;;;;;;;1.77;0.87;;;29.60;19.20;;;;;;5054226;28;20405;-77
2022/06/28 12:19:13;;;;;;;3.00;1.47;;;29.80;11.40;;;;;;5054941;28;20441;-77
2022/06/28 12:22:04;;;;;;;1.47;0.97;;;30.10;9.00;;;;;;5054941;28;20402;-75
2022/06/28 12:24:41;;;;;;;3.27;1.00;;;30.50;1.40;;;;;;5053487;28;20470;-69
2022/06/28 12:27:08;;;;;;;1.40;1.00;;;29.40;1.00;;;;;;5054056;28;20437;-76
2022/06/28 12:29:34;;;;;;;1.03;0.63;;;29.50;1.00;;;;;;5054036;28;20414;-70
2022/06/28 12:32:00;;;;;;;1.20;1.00;;;30.00;1.00;;;;;;5054838;28;20801;-77
2022/06/28 12:34:26;;;;;;;1.57;0.90;;;30.20;1.00;;;;;;5054663;28;20898;-72
2022/06/28 12:36:52;;;;;;;1.23;0.73;;;29.70;1.00;;;;;;5053791;28;20458;-77
2022/06/28 12:39:18;;;;;;;2.13;0.70;;;29.60;1.00;;;;;;5054651;28;20552;-69
2022/06/28 12:41:44;;;;;;;1.43;1.00;;;29.90;1.00;;;;;;5054583;28;20410;-77
2022/06/28 12:44:09;;;;;;;3.00;0.93;;;29.70;1.00;;;;;;5054482;28;20187;-67
2022/06/28 12:46:35;;;;;;;2.23;0.77;;;29.60;1.00;;;;;;5053069;28;20200;-71
2022/06/28 12:49:01;;;;;;;4.50;1.53;;;29.30;1.00;;;;;;5054194;28;20182;-75
2022/06/28 12:51:27;;;;;;;1.10;0.80;;;28.70;1.00;;;;;;5054377;28;20567;-68
2022/06/28 12:53:53;;;;;;;1.30;1.20;;;28.90;1.00;;;;;;5054547;28;20171;-68
2022/06/28 12:56:18;;;;;;;1.20;0.80;;;29.10;1.00;;;;;;5053959;28;20405;-68
2022/06/28 12:58:46;;;;;;;2.43;0.70;;;28.80;1.00;;;;;;5053476;28;20194;-70
2022/06/28 13:01:12;;;;;;;2.17;0.80;;;28.60;1.00;;;;;;5054298;28;20609;-70
2022/06/28 13:03:38;;;;;;;1.93;1.00;;;28.60;1.00;;;;;;5053468;28;20457;-74